Time;durP1;ratioP1;P1;durP2;ratioP2;P2;SDS_P1;SDS_P2;PMS_P1;PMS_P2;Temp;Humidity;BMP_temperature;BMP_pressure;BME280_temperature;BME280_humidity;BME280_pressure;Samples;Min_cycle;Max_cycle;Signal;HPM_P1;HPM_P2
2021/11/25 00:00:10;;;;;;;15.03;10.70;;;3.60;99.90;;;;;;5013026;28;20215;-61
2021/11/25 00:02:38;;;;;;;16.23;11.33;;;3.60;99.90;;;;;;5013091;28;20234;-61
2021/11/25 00:05:05;;;;;;;13.67;10.17;;;3.70;99.90;;;;;;5013021;28;20293;-61
2021/11/25 00:07:32;;;;;;;15.53;10.77;;;3.80;99.90;;;;;;5012656;28;20586;-61
2021/11/25 00:09:59;;;;;;;15.53;10.97;;;3.90;99.90;;;;;;5012753;28;20211;-61
2021/11/25 00:12:26;;;;;;;15.13;10.30;;;3.80;99.90;;;;;;5012905;28;20227;-61
2021/11/25 00:14:52;;;;;;;14.77;9.83;;;3.80;99.90;;;;;;5013016;28;20203;-61
2021/11/25 00:17:19;;;;;;;16.73;11.20;;;3.80;99.90;;;;;;5012521;28;20289;-61
2021/11/25 00:19:47;;;;;;;13.37;9.87;;;3.80;99.90;;;;;;5012792;28;20388;-61
2021/11/25 00:22:14;;;;;;;14.37;9.97;;;3.90;99.90;;;;;;5034422;23;21062;-58
2021/11/25 00:24:41;;;;;;;15.27;10.40;;;3.90;99.90;;;;;;5004510;28;20204;-58
2021/11/25 00:27:08;;;;;;;17.50;10.83;;;3.80;99.90;;;;;;5012987;28;20207;-58
2021/11/25 00:29:35;;;;;;;17.60;10.40;;;3.80;99.90;;;;;;5012941;28;20222;-58
2021/11/25 00:32:02;;;;;;;14.70;10.53;;;3.80;99.90;;;;;;5012655;28;20237;-58
2021/11/25 00:34:28;;;;;;;15.93;10.07;;;3.80;99.90;;;;;;5012912;28;20211;-58
2021/11/25 00:36:57;;;;;;;15.97;10.83;;;3.80;99.90;;;;;;5012273;28;20228;-58
2021/11/25 00:39:23;;;;;;;15.33;9.50;;;3.90;99.90;;;;;;5012404;28;20207;-59
2021/11/25 00:41:50;;;;;;;13.57;9.80;;;4.00;99.90;;;;;;5012716;28;20215;-58
2021/11/25 00:44:18;;;;;;;13.90;10.13;;;4.00;99.90;;;;;;5012383;28;20211;-58
2021/11/25 00:46:44;;;;;;;14.13;9.93;;;4.00;99.90;;;;;;5012369;28;20203;-58
2021/11/25 00:49:12;;;;;;;14.50;10.37;;;4.00;99.90;;;;;;5012476;28;20214;-62
2021/11/25 00:51:39;;;;;;;15.27;10.00;;;4.00;99.90;;;;;;5012159;28;20203;-58
2021/11/25 00:54:07;;;;;;;12.63;9.50;;;4.00;99.90;;;;;;5012192;28;20254;-58
2021/11/25 00:56:33;;;;;;;15.70;10.13;;;3.90;99.90;;;;;;5011902;28;20699;-58
2021/11/25 00:59:00;;;;;;;13.87;9.30;;;3.90;99.90;;;;;;5012407;28;20207;-58
2021/11/25 01:01:27;;;;;;;15.00;10.10;;;3.90;99.90;;;;;;5012391;28;20216;-58
2021/11/25 01:03:53;;;;;;;15.13;10.57;;;3.90;99.90;;;;;;5012199;28;20256;-58
2021/11/25 01:06:20;;;;;;;15.53;10.53;;;3.90;99.90;;;;;;5011898;28;20214;-58
2021/11/25 01:08:47;;;;;;;13.77;10.10;;;3.90;99.90;;;;;;5012428;28;20207;-58
2021/11/25 01:11:15;;;;;;;15.07;10.20;;;3.90;99.90;;;;;;5012455;28;20218;-58
2021/11/25 01:13:42;;;;;;;17.27;10.53;;;3.80;99.90;;;;;;5012314;28;20304;-58
2021/11/25 01:16:09;;;;;;;14.20;9.63;;;3.90;99.90;;;;;;5011870;28;20202;-58
2021/11/25 01:18:36;;;;;;;15.10;10.83;;;4.00;99.90;;;;;;5012026;28;20726;-57
2021/11/25 01:21:02;;;;;;;16.30;10.97;;;4.00;99.90;;;;;;5011954;28;20265;-58
2021/11/25 01:23:30;;;;;;;15.87;10.83;;;4.00;99.90;;;;;;5011978;28;20238;-58
2021/11/25 01:25:58;;;;;;;14.57;10.47;;;3.90;99.90;;;;;;5011859;28;20203;-58
2021/11/25 01:28:27;;;;;;;18.73;10.73;;;3.80;99.90;;;;;;5012016;28;20214;-58
2021/11/25 01:30:57;;;;;;;14.77;10.83;;;3.80;99.90;;;;;;5012104;28;20222;-58
2021/11/25 01:33:25;;;;;;;15.53;10.63;;;3.70;99.90;;;;;;5012062;28;20222;-57
2021/11/25 01:35:53;;;;;;;14.77;10.53;;;3.70;99.90;;;;;;5011906;28;20641;-58
2021/11/25 01:38:21;;;;;;;14.03;10.43;;;3.80;99.90;;;;;;5011917;28;20606;-58
2021/11/25 01:40:49;;;;;;;17.77;11.43;;;3.70;99.90;;;;;;5011912;28;20203;-58
2021/11/25 01:43:20;;;;;;;15.63;11.13;;;3.80;99.90;;;;;;5013520;28;20288;-58
2021/11/25 01:45:49;;;;;;;15.00;10.77;;;3.80;99.90;;;;;;5015529;28;20240;-58
2021/11/25 01:48:16;;;;;;;17.63;10.93;;;3.70;99.90;;;;;;5015633;28;20697;-58
2021/11/25 01:50:44;;;;;;;15.63;10.80;;;3.70;99.90;;;;;;5015692;28;20210;-58
2021/11/25 01:53:12;;;;;;;14.43;9.87;;;3.80;99.90;;;;;;5015320;28;20656;-58
2021/11/25 01:55:39;;;;;;;15.07;10.27;;;3.90;99.90;;;;;;5015757;28;20619;-58
2021/11/25 01:58:06;;;;;;;16.67;10.40;;;3.80;99.90;;;;;;5015500;28;20234;-58
2021/11/25 02:00:36;;;;;;;15.83;11.03;;;3.70;99.90;;;;;;5015373;28;20215;-58
2021/11/25 02:03:06;;;;;;;17.40;11.60;;;3.60;99.90;;;;;;5015143;28;20729;-58
2021/11/25 02:05:33;;;;;;;17.50;11.40;;;3.60;99.90;;;;;;5015263;28;20674;-58
2021/11/25 02:08:00;;;;;;;16.57;11.07;;;3.60;99.90;;;;;;5015088;28;20586;-58
2021/11/25 02:10:28;;;;;;;15.40;10.47;;;3.70;99.90;;;;;;5015346;28;20213;-58
2021/11/25 02:12:54;;;;;;;14.97;10.50;;;3.80;99.90;;;;;;5015171;28;20231;-58
2021/11/25 02:15:21;;;;;;;15.73;10.30;;;3.80;99.90;;;;;;5015124;28;20693;-58
2021/11/25 02:17:49;;;;;;;15.73;10.70;;;3.80;99.90;;;;;;5014906;28;20230;-58
2021/11/25 02:20:17;;;;;;;15.60;11.10;;;3.80;99.90;;;;;;5015284;28;20222;-58
2021/11/25 02:22:45;;;;;;;16.10;10.63;;;3.80;99.90;;;;;;5014786;28;20234;-58
2021/11/25 02:25:14;;;;;;;16.27;11.57;;;3.80;99.90;;;;;;5015002;28;20585;-58
2021/11/25 02:27:44;;;;;;;15.97;11.13;;;3.90;99.90;;;;;;5014606;28;20210;-58
2021/11/25 02:30:12;;;;;;;18.23;11.40;;;3.90;99.90;;;;;;5015171;28;20250;-58
2021/11/25 02:32:42;;;;;;;16.40;10.77;;;3.90;99.90;;;;;;5014806;28;20227;-58
2021/11/25 02:35:13;;;;;;;15.37;10.83;;;3.90;99.90;;;;;;5014993;28;20298;-58
2021/11/25 02:37:40;;;;;;;15.57;11.30;;;3.90;99.90;;;;;;5014530;28;20223;-58
2021/11/25 02:40:24;;;;;;;15.47;11.50;;;4.00;99.90;;;;;;5014589;28;20214;-58
2021/11/25 02:42:52;;;;;;;15.83;11.00;;;4.00;99.90;;;;;;5014772;28;20226;-58
2021/11/25 02:45:21;;;;;;;17.70;11.60;;;4.00;99.90;;;;;;5014549;28;20674;-58
2021/11/25 02:47:47;;;;;;;15.70;11.57;;;4.10;99.90;;;;;;5014455;28;20203;-59
2021/11/25 02:50:16;;;;;;;16.43;11.63;;;4.20;99.90;;;;;;5014556;28;20230;-58
2021/11/25 02:52:43;;;;;;;18.20;10.97;;;4.20;99.90;;;;;;5014434;28;20242;-59
2021/11/25 02:55:10;;;;;;;17.43;11.53;;;4.10;99.90;;;;;;5013498;28;20210;-59
2021/11/25 02:57:39;;;;;;;18.80;12.30;;;4.20;99.90;;;;;;5014404;28;20223;-59
2021/11/25 03:00:12;;;;;;;17.10;11.30;;;4.20;99.90;;;;;;5014615;28;20203;-58
2021/11/25 03:02:39;;;;;;;17.10;11.33;;;4.20;99.90;;;;;;5014483;28;20738;-58
2021/11/25 03:05:07;;;;;;;17.97;11.97;;;4.20;99.90;;;;;;5014960;28;20886;-58
2021/11/25 03:07:33;;;;;;;16.30;11.17;;;4.20;99.90;;;;;;5014146;28;20214;-59
2021/11/25 03:10:00;;;;;;;16.57;11.10;;;4.00;99.90;;;;;;5014336;28;20222;-58
2021/11/25 03:12:27;;;;;;;15.33;11.17;;;3.80;99.90;;;;;;5014088;28;20238;-58
2021/11/25 03:14:55;;;;;;;16.70;10.93;;;3.80;99.90;;;;;;5013992;28;20202;-58
2021/11/25 03:17:22;;;;;;;17.60;11.90;;;3.90;99.90;;;;;;5013667;28;20219;-58
2021/11/25 03:19:48;;;;;;;16.87;11.37;;;3.90;99.90;;;;;;5013812;28;20215;-58
2021/11/25 03:22:15;;;;;;;17.50;11.60;;;3.80;99.90;;;;;;5013852;28;20238;-58
2021/11/25 03:24:42;;;;;;;15.73;11.70;;;3.90;99.90;;;;;;5014272;28;20218;-58
2021/11/25 03:27:08;;;;;;;19.70;11.83;;;4.00;99.90;;;;;;5013358;28;20602;-58
2021/11/25 03:29:35;;;;;;;14.00;10.83;;;4.10;99.90;;;;;;5013622;28;20216;-58
2021/11/25 03:32:04;;;;;;;17.83;11.03;;;4.10;99.90;;;;;;5013439;28;20643;-58
2021/11/25 03:34:30;;;;;;;15.27;11.10;;;4.10;99.90;;;;;;5013548;28;20286;-58
2021/11/25 03:36:57;;;;;;;16.57;11.37;;;4.00;99.90;;;;;;5013467;28;20218;-58
2021/11/25 03:39:24;;;;;;;15.83;11.77;;;4.10;99.90;;;;;;5013511;28;20234;-58
2021/11/25 03:41:50;;;;;;;18.17;11.60;;;4.20;99.90;;;;;;5013487;28;20212;-58
2021/11/25 03:44:17;;;;;;;17.50;11.40;;;4.20;99.90;;;;;;5013259;28;20207;-58
2021/11/25 03:46:44;;;;;;;19.87;12.00;;;4.30;99.90;;;;;;5013141;28;20207;-58
2021/11/25 03:49:12;;;;;;;18.67;12.23;;;4.30;99.90;;;;;;5013511;28;20211;-58
2021/11/25 03:51:39;;;;;;;17.27;11.77;;;4.30;99.90;;;;;;5013224;28;20671;-58
2021/11/25 03:54:05;;;;;;;19.77;12.10;;;4.40;99.90;;;;;;5013348;28;20254;-58
2021/11/25 03:56:32;;;;;;;15.70;11.23;;;4.40;99.90;;;;;;5013186;28;20240;-58
2021/11/25 03:58:59;;;;;;;19.83;12.63;;;4.50;99.90;;;;;;5013458;28;20227;-58
2021/11/25 04:01:26;;;;;;;17.70;12.10;;;4.50;99.90;;;;;;5013287;28;20206;-58
2021/11/25 04:03:52;;;;;;;17.33;11.63;;;4.50;99.90;;;;;;5013245;28;20231;-59
2021/11/25 04:06:20;;;;;;;18.50;12.20;;;4.40;99.90;;;;;;5012639;28;20298;-59
2021/11/25 04:08:47;;;;;;;17.73;12.70;;;4.50;99.90;;;;;;5013141;28;20213;-61
2021/11/25 04:11:14;;;;;;;17.53;12.23;;;4.40;99.90;;;;;;5013041;28;20233;-59
2021/11/25 04:13:40;;;;;;;17.97;12.33;;;4.40;99.90;;;;;;5012937;28;20223;-59
2021/11/25 04:16:07;;;;;;;19.27;12.30;;;4.40;99.90;;;;;;5012659;28;20226;-59
2021/11/25 04:18:34;;;;;;;17.43;12.47;;;4.40;99.90;;;;;;5013041;28;20227;-59
2021/11/25 04:21:01;;;;;;;17.73;12.27;;;4.40;99.90;;;;;;5012731;28;20623;-58
2021/11/25 04:23:29;;;;;;;19.10;11.93;;;4.40;99.90;;;;;;5012599;28;20857;-59
2021/11/25 04:25:55;;;;;;;17.80;12.57;;;4.40;99.90;;;;;;5012657;28;20241;-58
2021/11/25 04:28:22;;;;;;;17.33;12.37;;;4.40;99.90;;;;;;5012709;28;20626;-59
2021/11/25 04:36:19;;;;;;;19.03;13.17;;;4.80;99.90;;;;;;5012297;28;20314;-59
2021/11/25 04:38:48;;;;;;;17.97;12.50;;;4.90;99.90;;;;;;5012564;28;20227;-59
2021/11/25 04:41:14;;;;;;;18.40;12.77;;;4.90;99.90;;;;;;5012967;28;20207;-59
2021/11/25 04:43:41;;;;;;;18.90;13.10;;;4.90;99.90;;;;;;5013349;28;20242;-59
2021/11/25 04:46:08;;;;;;;19.83;13.50;;;4.90;99.90;;;;;;5012172;28;20214;-59
2021/11/25 04:48:35;;;;;;;20.93;13.80;;;4.80;99.90;;;;;;5012457;28;20666;-59
2021/11/25 04:51:01;;;;;;;19.43;13.83;;;4.70;99.90;;;;;;5012353;28;20269;-59
2021/11/25 04:53:28;;;;;;;20.00;13.70;;;4.80;99.90;;;;;;5012215;28;20234;-59
2021/11/25 04:55:56;;;;;;;20.73;14.33;;;4.90;99.90;;;;;;5012430;28;20218;-58
2021/11/25 04:58:23;;;;;;;21.27;13.77;;;4.80;99.90;;;;;;5012250;28;20227;-59
2021/11/25 05:00:50;;;;;;;23.47;15.60;;;4.80;99.90;;;;;;5012385;28;20214;-59
2021/11/25 05:03:17;;;;;;;22.13;14.77;;;4.90;99.90;;;;;;5012199;28;20223;-59
2021/11/25 05:05:44;;;;;;;21.20;13.60;;;5.00;99.90;;;;;;5012211;28;20210;-59
2021/11/25 05:08:10;;;;;;;19.93;13.90;;;4.90;99.90;;;;;;5011901;28;20213;-59
2021/11/25 05:10:38;;;;;;;20.60;14.73;;;4.70;99.90;;;;;;5012314;28;20203;-59
2021/11/25 05:13:06;;;;;;;22.47;15.63;;;4.70;99.90;;;;;;5012177;28;20317;-59
2021/11/25 05:15:33;;;;;;;21.97;14.90;;;4.80;99.90;;;;;;5012090;28;20210;-60
2021/11/25 05:18:00;;;;;;;22.33;14.27;;;4.90;99.90;;;;;;5013105;28;20215;-59
2021/11/25 05:20:27;;;;;;;22.60;14.37;;;4.90;99.90;;;;;;5016071;28;20234;-58
2021/11/25 05:22:54;;;;;;;22.20;15.30;;;4.90;99.90;;;;;;5016377;28;20235;-58
2021/11/25 05:25:20;;;;;;;21.53;14.87;;;5.00;99.90;;;;;;5016469;28;20207;-58
2021/11/25 05:27:48;;;;;;;21.30;14.67;;;5.00;99.90;;;;;;5016082;28;20211;-58
2021/11/25 05:30:17;;;;;;;19.97;13.50;;;5.00;99.90;;;;;;5016146;28;20202;-59
2021/11/25 05:32:44;;;;;;;20.00;13.87;;;5.00;99.90;;;;;;5015875;28;20229;-58
2021/11/25 05:35:12;;;;;;;20.13;14.00;;;5.10;99.90;;;;;;5015970;28;20241;-59
2021/11/25 05:37:39;;;;;;;20.80;14.50;;;5.20;99.90;;;;;;5015645;28;20671;-59
2021/11/25 05:40:08;;;;;;;21.77;15.23;;;5.30;99.90;;;;;;5016035;28;20230;-61
2021/11/25 05:42:35;;;;;;;25.80;16.40;;;5.40;99.90;;;;;;5016065;28;20226;-59
2021/11/25 05:45:03;;;;;;;25.17;16.10;;;5.40;99.90;;;;;;5015609;28;20211;-59
2021/11/25 05:47:34;;;;;;;22.67;15.13;;;5.40;99.90;;;;;;5015316;28;20214;-59
2021/11/25 05:50:01;;;;;;;24.70;16.70;;;5.40;99.90;;;;;;5016059;28;20210;-60
2021/11/25 05:52:27;;;;;;;21.67;14.87;;;5.40;99.90;;;;;;5015486;28;20227;-60
2021/11/25 05:54:55;;;;;;;24.70;16.47;;;5.40;99.90;;;;;;5015353;28;20701;-60
2021/11/25 05:57:21;;;;;;;22.17;14.73;;;5.40;99.90;;;;;;5015555;28;20210;-60
2021/11/25 05:59:48;;;;;;;23.77;15.93;;;5.50;99.90;;;;;;5015372;28;20235;-61
2021/11/25 06:02:16;;;;;;;31.27;22.50;;;5.50;99.90;;;;;;5015004;28;20757;-60
2021/11/25 06:04:44;;;;;;;25.00;16.17;;;5.60;99.90;;;;;;5015591;28;20568;-59
2021/11/25 06:07:11;;;;;;;25.40;17.20;;;5.60;99.90;;;;;;5014877;28;20211;-60
2021/11/25 06:09:39;;;;;;;22.77;16.13;;;5.60;99.90;;;;;;5015228;28;20222;-60
2021/11/25 06:12:06;;;;;;;20.50;14.50;;;5.70;99.90;;;;;;5014986;28;20585;-60
2021/11/25 06:14:34;;;;;;;22.83;14.43;;;5.70;99.90;;;;;;5014937;28;20202;-59
2021/11/25 06:17:01;;;;;;;23.37;15.57;;;5.70;99.90;;;;;;5014723;28;20219;-60
2021/11/25 06:19:28;;;;;;;21.40;14.70;;;5.70;99.90;;;;;;5015188;28;20230;-59
2021/11/25 06:21:56;;;;;;;20.97;14.73;;;5.70;99.90;;;;;;5014766;28;20214;-59
2021/11/25 06:24:23;;;;;;;19.67;14.53;;;5.70;99.90;;;;;;5015365;28;20709;-58
2021/11/25 06:26:50;;;;;;;20.60;14.73;;;5.70;99.90;;;;;;5014655;28;20236;-59
2021/11/25 06:29:17;;;;;;;19.67;14.30;;;5.80;99.90;;;;;;5014418;28;20203;-59
2021/11/25 06:31:44;;;;;;;29.57;19.27;;;5.90;99.90;;;;;;5014942;28;20215;-59
2021/11/25 06:34:11;;;;;;;24.57;16.93;;;5.90;99.90;;;;;;5014744;28;20230;-59
2021/11/25 06:36:38;;;;;;;24.87;16.53;;;5.90;99.90;;;;;;5014742;28;20234;-59
2021/11/25 06:39:07;;;;;;;25.33;15.97;;;5.80;99.90;;;;;;5014496;28;20229;-59
2021/11/25 06:41:34;;;;;;;19.70;14.73;;;5.80;99.90;;;;;;5014803;28;20207;-59
2021/11/25 06:44:01;;;;;;;22.47;14.87;;;5.70;99.90;;;;;;5014273;28;20640;-59
2021/11/25 06:46:28;;;;;;;21.30;15.20;;;5.80;99.90;;;;;;5014533;28;20206;-59
2021/11/25 06:48:54;;;;;;;21.73;15.47;;;5.80;99.90;;;;;;5014605;28;20210;-59
2021/11/25 06:51:21;;;;;;;22.60;15.37;;;5.90;99.90;;;;;;5014213;28;20214;-59
2021/11/25 06:53:48;;;;;;;22.40;15.03;;;6.00;99.90;;;;;;5014279;28;20231;-60
2021/11/25 06:56:16;;;;;;;22.67;15.40;;;6.00;99.90;;;;;;5013827;28;20211;-59
2021/11/25 06:58:43;;;;;;;22.37;14.00;;;6.10;99.90;;;;;;5014136;28;20233;-59
2021/11/25 07:01:10;;;;;;;35.33;19.97;;;5.90;99.90;;;;;;5014370;28;20237;-59
2021/11/25 07:03:37;;;;;;;35.10;22.23;;;5.80;99.90;;;;;;5014414;28;20234;-59
2021/11/25 07:06:04;;;;;;;24.00;15.87;;;5.80;99.90;;;;;;5014387;28;20233;-59
2021/11/25 07:08:31;;;;;;;23.63;15.83;;;5.80;99.90;;;;;;5013831;28;20698;-60
2021/11/25 07:10:58;;;;;;;22.23;15.03;;;5.80;99.90;;;;;;5013995;28;20218;-59
2021/11/25 07:13:26;;;;;;;20.07;14.30;;;5.80;99.90;;;;;;5014095;28;20223;-60
2021/11/25 07:15:53;;;;;;;21.13;13.50;;;5.80;99.90;;;;;;5013847;28;20207;-60
2021/11/25 07:18:20;;;;;;;22.57;15.07;;;5.80;99.90;;;;;;5013632;28;20226;-60
2021/11/25 07:20:47;;;;;;;24.27;16.83;;;5.80;99.90;;;;;;5013674;28;20693;-59
2021/11/25 07:23:13;;;;;;;20.90;14.90;;;5.80;99.90;;;;;;5013405;28;20612;-59
2021/11/25 07:25:41;;;;;;;23.47;15.73;;;5.80;99.90;;;;;;5014269;28;20207;-60
2021/11/25 07:28:07;;;;;;;22.57;15.63;;;5.70;99.90;;;;;;5014418;28;20214;-60
2021/11/25 07:30:35;;;;;;;22.97;15.10;;;5.50;99.90;;;;;;5014058;28;20210;-59
2021/11/25 07:33:02;;;;;;;21.20;14.63;;;5.30;99.90;;;;;;5013464;28;20234;-59
2021/11/25 07:35:29;;;;;;;19.97;14.50;;;5.20;99.90;;;;;;5013312;28;20607;-58
2021/11/25 07:37:57;;;;;;;21.10;14.40;;;5.30;99.90;;;;;;5013363;28;20210;-59
2021/11/25 07:40:25;;;;;;;22.07;14.50;;;5.40;99.90;;;;;;5012727;28;20226;-59
2021/11/25 07:42:53;;;;;;;25.23;16.07;;;5.50;99.90;;;;;;5013688;28;20226;-59
2021/11/25 07:45:20;;;;;;;27.13;17.37;;;5.60;99.90;;;;;;5013619;28;20229;-59
2021/11/25 07:47:48;;;;;;;25.67;16.50;;;5.70;99.90;;;;;;5013079;28;20622;-59
2021/11/25 07:50:19;;;;;;;26.77;17.00;;;5.80;99.90;;;;;;5013433;28;20203;-59
2021/11/25 07:52:46;;;;;;;23.57;16.40;;;5.80;99.90;;;;;;5013355;28;20227;-61
2021/11/25 07:55:15;;;;;;;24.03;16.53;;;6.00;99.90;;;;;;5013507;28;20210;-60
2021/11/25 07:57:43;;;;;;;28.17;16.67;;;6.10;99.90;;;;;;5013298;28;20207;-60
2021/11/25 08:00:11;;;;;;;22.80;16.10;;;6.10;99.90;;;;;;5013411;28;20752;-60
2021/11/25 08:02:39;;;;;;;22.57;15.60;;;6.10;99.90;;;;;;5013244;28;20231;-60
2021/11/25 08:05:09;;;;;;;22.73;15.57;;;6.20;99.90;;;;;;5013129;28;20583;-60
2021/11/25 08:07:37;;;;;;;20.80;15.10;;;6.20;99.90;;;;;;5013476;28;20610;-60
2021/11/25 08:10:05;;;;;;;22.10;15.77;;;6.20;99.90;;;;;;5013148;28;20200;-60
2021/11/25 08:12:32;;;;;;;22.00;15.50;;;6.20;99.90;;;;;;5013388;28;20322;-60
2021/11/25 08:14:59;;;;;;;22.50;15.07;;;6.10;99.90;;;;;;5013181;28;20215;-60
2021/11/25 08:17:26;;;;;;;24.47;16.00;;;6.10;99.90;;;;;;5012839;28;20697;-60
2021/11/25 08:19:52;;;;;;;19.83;13.90;;;6.10;99.90;;;;;;5013085;28;20633;-59
2021/11/25 08:22:21;;;;;;;20.67;14.60;;;6.10;99.90;;;;;;5012853;28;20661;-60
2021/11/25 08:24:48;;;;;;;19.43;13.47;;;6.20;99.90;;;;;;5013315;28;20206;-60
2021/11/25 08:27:14;;;;;;;22.67;15.37;;;6.30;99.90;;;;;;5012636;28;20215;-60
2021/11/25 08:29:41;;;;;;;19.57;13.80;;;6.30;99.90;;;;;;5012693;28;20207;-60
2021/11/25 08:32:09;;;;;;;19.00;13.80;;;6.50;99.90;;;;;;5012580;28;20202;-59
2021/11/25 08:34:36;;;;;;;24.03;15.10;;;6.60;99.90;;;;;;5013137;28;20206;-60
2021/11/25 08:37:03;;;;;;;22.30;14.07;;;6.60;99.90;;;;;;5012602;28;20214;-60
2021/11/25 08:39:31;;;;;;;20.33;14.67;;;6.70;99.90;;;;;;5012635;28;20223;-60
2021/11/25 08:41:58;;;;;;;22.67;15.43;;;6.70;99.90;;;;;;5012602;28;20227;-60
2021/11/25 08:44:24;;;;;;;20.67;14.67;;;6.70;99.90;;;;;;5012487;28;20211;-60
2021/11/25 08:46:51;;;;;;;22.00;14.73;;;6.70;99.90;;;;;;5012229;28;20206;-59
2021/11/25 08:49:18;;;;;;;21.53;14.50;;;6.70;99.90;;;;;;5012527;28;20202;-60
2021/11/25 08:51:45;;;;;;;21.87;14.27;;;6.60;99.90;;;;;;5012775;28;20623;-59
2021/11/25 08:54:12;;;;;;;20.93;14.60;;;6.50;99.90;;;;;;5012565;28;20227;-60
2021/11/25 08:56:40;;;;;;;22.17;15.00;;;6.50;99.90;;;;;;5012279;28;20211;-60
2021/11/25 08:59:07;;;;;;;22.17;14.40;;;6.50;99.90;;;;;;5012400;28;20343;-59
2021/11/25 09:01:33;;;;;;;23.47;16.00;;;6.20;99.90;;;;;;5012508;28;20594;-60
2021/11/25 09:04:00;;;;;;;22.23;14.90;;;6.20;99.90;;;;;;5012473;28;20234;-60
2021/11/25 09:06:27;;;;;;;19.83;13.77;;;6.30;99.90;;;;;;5012070;28;20211;-59
2021/11/25 09:08:55;;;;;;;19.30;13.73;;;6.10;99.90;;;;;;5012387;28;20798;-57
2021/11/25 09:11:21;;;;;;;20.00;13.27;;;6.00;99.90;;;;;;5012254;28;20234;-58
2021/11/25 09:13:49;;;;;;;21.30;14.07;;;5.50;99.90;;;;;;5012477;28;20231;-58
2021/11/25 09:16:17;;;;;;;21.43;14.23;;;5.10;99.90;;;;;;5012610;28;20207;-60
2021/11/25 09:18:44;;;;;;;19.60;13.13;;;5.00;99.90;;;;;;5012042;28;20207;-58
2021/11/25 09:21:11;;;;;;;21.00;13.43;;;5.00;99.90;;;;;;5012077;28;20223;-58
2021/11/25 09:23:38;;;;;;;18.50;13.37;;;5.20;99.90;;;;;;5011930;28;20737;-60
2021/11/25 09:26:05;;;;;;;21.83;13.93;;;5.30;99.90;;;;;;5012176;28;20215;-58
2021/11/25 09:28:34;;;;;;;20.00;13.43;;;5.50;99.90;;;;;;5011808;28;20222;-58
2021/11/25 09:31:02;;;;;;;20.60;13.50;;;5.60;99.90;;;;;;5012320;28;20260;-59
2021/11/25 09:33:29;;;;;;;21.73;13.70;;;5.50;99.90;;;;;;5011936;28;20233;-59
2021/11/25 09:35:56;;;;;;;19.53;13.20;;;5.70;99.90;;;;;;5012025;28;20211;-59
2021/11/25 09:38:23;;;;;;;22.00;13.70;;;5.80;99.90;;;;;;5012465;28;20211;-60
2021/11/25 09:40:50;;;;;;;23.93;14.80;;;5.90;99.90;;;;;;5012428;28;20229;-60
2021/11/25 09:43:24;;;;;;;20.80;14.50;;;6.20;99.90;;;;;;5012675;28;20239;-61
2021/11/25 09:45:52;;;;;;;21.30;14.03;;;6.50;99.90;;;;;;5012635;28;20257;-60
2021/11/25 09:48:21;;;;;;;20.97;14.50;;;6.80;99.90;;;;;;5012034;28;20214;-60
2021/11/25 09:50:51;;;;;;;20.03;13.50;;;6.90;99.90;;;;;;5012105;28;20209;-60
2021/11/25 09:53:21;;;;;;;24.13;14.90;;;7.10;99.90;;;;;;5012246;28;20237;-60
2021/11/25 09:55:50;;;;;;;21.80;14.73;;;7.30;99.90;;;;;;5012143;28;20215;-60
2021/11/25 09:58:20;;;;;;;21.50;14.60;;;7.20;99.90;;;;;;5012031;28;20204;-61
2021/11/25 10:00:50;;;;;;;22.00;14.80;;;7.10;99.90;;;;;;5011956;28;20237;-61
2021/11/25 10:03:18;;;;;;;21.60;13.97;;;7.10;99.90;;;;;;5012433;28;20230;-61
2021/11/25 10:05:48;;;;;;;18.00;13.00;;;6.60;99.90;;;;;;5015493;28;20225;-59
2021/11/25 10:08:23;;;;;;;20.33;13.20;;;6.10;99.90;;;;;;5016030;28;20199;-59
2021/11/25 10:10:58;;;;;;;20.60;13.53;;;5.60;99.90;;;;;;5015646;28;20481;-59
2021/11/25 10:13:26;;;;;;;20.50;14.03;;;5.80;99.90;;;;;;5015281;28;20237;-59
2021/11/25 10:15:58;;;;;;;21.00;13.83;;;6.00;99.90;;;;;;5015566;28;20236;-60
2021/11/25 10:18:24;;;;;;;21.87;14.87;;;6.30;99.90;;;;;;5015194;28;20683;-60
2021/11/25 10:20:53;;;;;;;20.37;13.67;;;6.50;99.90;;;;;;5015435;28;20235;-60
2021/11/25 10:23:23;;;;;;;19.17;13.73;;;6.50;99.90;;;;;;5015480;28;20621;-60
2021/11/25 10:25:55;;;;;;;21.13;13.80;;;6.30;99.90;;;;;;5015922;28;20294;-60
2021/11/25 10:28:38;;;;;;;23.03;14.63;;;6.00;99.90;;;;;;5015547;28;20222;-60
2021/11/25 10:31:11;;;;;;;20.00;13.70;;;5.90;99.90;;;;;;5013901;28;20214;-60
2021/11/25 10:33:45;;;;;;;21.90;14.40;;;6.00;99.90;;;;;;5015203;28;20249;-60
2021/11/25 10:39:09;;;;;;;24.13;17.03;;;5.90;99.90;;;;;;5015339;28;20217;-61
2021/11/25 10:41:38;;;;;;;25.00;17.33;;;6.20;99.90;;;;;;5015538;28;20233;-61
2021/11/25 10:44:13;;;;;;;21.73;14.60;;;6.50;99.90;;;;;;5015405;28;20229;-61
2021/11/25 10:46:44;;;;;;;22.20;15.33;;;6.60;99.90;;;;;;5015214;28;20206;-62
2021/11/25 10:49:11;;;;;;;23.37;15.07;;;6.70;99.90;;;;;;5015807;28;20667;-62
2021/11/25 10:51:42;;;;;;;22.27;14.17;;;6.70;99.90;;;;;;5015439;28;20299;-61
2021/11/25 10:54:10;;;;;;;23.03;15.07;;;6.80;99.90;;;;;;5016335;28;20258;-56
2021/11/25 10:56:42;;;;;;;19.97;13.77;;;6.90;99.90;;;;;;5016235;28;20194;-55
2021/11/25 10:59:13;;;;;;;20.17;13.83;;;7.00;99.90;;;;;;5017310;28;20207;-55
2021/11/25 11:01:41;;;;;;;24.10;15.50;;;7.00;99.90;;;;;;5017298;28;20229;-58
2021/11/25 11:04:10;;;;;;;23.97;14.60;;;7.10;99.90;;;;;;5015978;28;20245;-63
2021/11/25 11:06:41;;;;;;;24.47;15.50;;;7.20;99.90;;;;;;5016243;28;20211;-63
2021/11/25 11:09:27;;;;;;;21.50;14.47;;;7.30;99.90;;;;;;5017217;28;20210;-63
2021/11/25 11:12:18;;;;;;;24.37;14.67;;;7.30;99.90;;;;;;5016792;28;20250;-63
2021/11/25 11:14:50;;;;;;;19.77;13.47;;;7.40;99.90;;;;;;5015230;28;20239;-63
2021/11/25 11:17:33;;;;;;;22.17;14.90;;;7.50;99.90;;;;;;5014225;28;20737;-63
2021/11/25 11:20:11;;;;;;;21.47;13.97;;;7.50;99.90;;;;;;5014992;28;20234;-64
2021/11/25 11:22:39;;;;;;;22.27;14.70;;;7.60;99.90;;;;;;5014173;28;20238;-64
2021/11/25 11:25:08;;;;;;;20.03;13.77;;;7.70;99.90;;;;;;5014184;28;20214;-63
2021/11/25 11:27:35;;;;;;;20.70;14.40;;;7.80;99.90;;;;;;5014429;28;20207;-63
2021/11/25 11:30:03;;;;;;;23.43;15.37;;;7.80;99.90;;;;;;5013834;28;20700;-63
2021/11/25 11:32:31;;;;;;;22.53;14.47;;;7.90;99.90;;;;;;5013941;28;20230;-63
2021/11/25 11:34:58;;;;;;;20.13;14.43;;;7.90;99.90;;;;;;5014120;28;20207;-63
2021/11/25 11:37:26;;;;;;;21.50;14.93;;;7.80;99.90;;;;;;5013927;28;20270;-64
2021/11/25 11:39:54;;;;;;;21.50;14.80;;;7.70;99.90;;;;;;5013635;28;20211;-63
2021/11/25 11:42:25;;;;;;;31.97;21.73;;;7.70;99.90;;;;;;5014052;28;20265;-63
2021/11/25 11:44:54;;;;;;;19.77;14.47;;;7.70;99.90;;;;;;5013799;28;20310;-63
2021/11/25 11:47:23;;;;;;;22.47;16.00;;;7.80;99.90;;;;;;5013864;28;20637;-63
2021/11/25 11:49:50;;;;;;;21.50;14.33;;;7.80;99.90;;;;;;5013709;28;20214;-63
2021/11/25 11:52:20;;;;;;;20.63;14.47;;;7.70;99.90;;;;;;5013419;28;20241;-63
2021/11/25 11:54:49;;;;;;;22.03;14.03;;;7.50;99.90;;;;;;5013668;28;20619;-63
2021/11/25 11:57:40;;;;;;;20.90;15.00;;;7.20;99.90;;;;;;5013484;28;20206;-64
2021/11/25 12:00:35;;;;;;;20.80;13.97;;;7.20;99.90;;;;;;5013593;28;20211;-62
2021/11/25 12:03:02;;;;;;;20.07;13.63;;;6.90;99.90;;;;;;5007584;28;20281;-63
2021/11/25 12:05:47;;;;;;;21.73;14.73;;;6.70;99.90;;;;;;5013610;28;20213;-61
2021/11/25 12:08:53;;;;;;;23.40;15.33;;;6.40;99.90;;;;;;5013056;28;20670;-61
2021/11/25 12:11:21;;;;;;;20.57;14.17;;;6.60;99.90;;;;;;5008109;28;20207;-64
2021/11/25 12:14:14;;;;;;;20.50;14.00;;;6.80;99.90;;;;;;5013422;28;20226;-62
2021/11/25 12:16:47;;;;;;;21.10;14.63;;;6.90;99.90;;;;;;5006942;28;20215;-63
2021/11/25 12:19:14;;;;;;;21.37;14.53;;;7.00;99.90;;;;;;5013678;28;20658;-60
2021/11/25 12:21:45;;;;;;;22.50;15.57;;;6.70;99.90;;;;;;5013365;28;20231;-60
2021/11/25 12:24:18;;;;;;;21.60;15.30;;;6.50;99.90;;;;;;5015194;28;20273;-61
2021/11/25 12:27:11;;;;;;;22.03;14.57;;;6.40;99.90;;;;;;5013507;28;20212;-61
2021/11/25 12:29:47;;;;;;;23.90;15.37;;;6.30;99.90;;;;;;5013355;28;20214;-62
2021/11/25 12:32:30;;;;;;;21.00;14.80;;;6.40;99.90;;;;;;5012955;28;20237;-62
2021/11/25 12:35:00;;;;;;;22.37;15.47;;;6.40;99.90;;;;;;5013236;28;20580;-62
2021/11/25 12:38:01;;;;;;;23.02;17.48;;;6.50;99.90;;;;;;5008621;28;20450;-60
2021/11/25 12:40:40;;;;;;;19.33;14.17;;;6.70;99.90;;;;;;5012070;28;20714;-59
2021/11/25 12:43:09;;;;;;;20.67;14.47;;;6.70;99.90;;;;;;5012387;28;20265;-59
2021/11/25 12:45:40;;;;;;;21.13;14.70;;;6.80;99.90;;;;;;5012026;28;20211;-59
2021/11/25 12:48:25;;;;;;;20.00;14.00;;;6.80;99.90;;;;;;5005397;28;20663;-58
2021/11/25 12:50:55;;;;;;;22.67;14.80;;;6.70;99.90;;;;;;5011246;28;20203;-59
2021/11/25 12:53:32;;;;;;;20.77;14.07;;;6.60;99.90;;;;;;5012557;28;20234;-59